createdAt,value
2019-05-13T00:00:55.638Z,15.70
2019-05-13T00:03:27.311Z,15.70
2019-05-13T00:05:56.273Z,15.80
2019-05-13T00:08:25.313Z,15.80
2019-05-13T00:10:54.359Z,15.80
2019-05-13T00:13:23.741Z,15.90
2019-05-13T00:15:54.380Z,15.90
2019-05-13T00:18:23.666Z,15.90
2019-05-13T00:21:03.835Z,15.90
2019-05-13T00:23:37.005Z,15.80
2019-05-13T00:26:06.045Z,15.60
2019-05-13T00:28:37.968Z,15.30
2019-05-13T00:31:06.940Z,15.20
2019-05-13T00:33:38.134Z,15.10
2019-05-13T00:36:07.089Z,15.10
2019-05-13T00:38:37.120Z,15.00
2019-05-13T00:41:14.140Z,14.90
2019-05-13T00:43:38.985Z,14.90
2019-05-13T00:46:07.971Z,14.90
2019-05-13T00:48:41.115Z,14.90
2019-05-13T00:51:14.120Z,14.90
2019-05-13T00:53:44.216Z,14.90
2019-05-13T00:56:14.183Z,15.00
2019-05-13T00:58:43.724Z,15.00
2019-05-13T01:01:14.197Z,15.10
2019-05-13T01:03:44.319Z,15.10
2019-05-13T01:06:15.333Z,15.20
2019-05-13T01:08:46.368Z,15.20
2019-05-13T01:11:17.381Z,15.20
2019-05-13T01:13:46.463Z,15.10
2019-05-13T01:16:23.465Z,15.10
2019-05-13T01:18:53.762Z,15.30
2019-05-13T01:21:24.034Z,15.30
2019-05-13T01:24:03.857Z,15.20
2019-05-13T01:26:34.757Z,15.10
2019-05-13T01:29:04.449Z,15.00
2019-05-13T01:31:36.350Z,15.10
2019-05-13T01:34:09.793Z,15.10
2019-05-13T01:36:40.389Z,15.20
2019-05-13T01:39:25.201Z,15.30
2019-05-13T01:41:59.896Z,15.70
2019-05-13T01:44:28.638Z,16.10
2019-05-13T01:46:58.175Z,16.30
2019-05-13T01:49:30.251Z,16.40
2019-05-13T01:52:03.784Z,16.60
2019-05-13T01:54:34.367Z,16.60
2019-05-13T01:57:11.266Z,16.60
2019-05-13T02:02:46.558Z,16.50
2019-05-13T02:05:17.994Z,16.50
2019-05-13T02:08:00.670Z,16.60
2019-05-13T02:11:05.674Z,16.70
2019-05-13T02:13:38.539Z,16.70
2019-05-13T02:16:14.350Z,16.80
2019-05-13T02:18:44.410Z,16.80
2019-05-13T02:21:19.922Z,16.90
2019-05-13T02:23:53.825Z,16.80
2019-05-13T02:26:35.831Z,16.90
2019-05-13T02:29:16.961Z,16.90
2019-05-13T02:34:43.767Z,16.70
2019-05-13T02:40:13.211Z,16.80
2019-05-13T02:42:52.363Z,16.80
2019-05-13T02:51:35.737Z,16.90
2019-05-13T02:57:03.295Z,16.80
2019-05-13T02:59:36.928Z,16.90
2019-05-13T03:02:26.691Z,16.90
2019-05-13T03:05:02.858Z,16.80
2019-05-13T03:07:33.469Z,16.80
2019-05-13T03:10:07.002Z,16.90
2019-05-13T03:12:38.062Z,17.00
2019-05-13T03:15:08.872Z,17.00
2019-05-13T03:17:48.649Z,16.90
2019-05-13T03:20:22.920Z,16.80
2019-05-13T03:23:02.801Z,16.90
2019-05-13T03:25:33.088Z,17.00
2019-05-13T03:30:56.928Z,16.90
2019-05-13T03:33:28.575Z,17.00
2019-05-13T03:35:57.568Z,17.00
2019-05-13T03:38:32.653Z,17.00
2019-05-13T03:41:03.241Z,16.80
2019-05-13T03:43:35.371Z,16.80
2019-05-13T03:46:05.128Z,16.90
2019-05-13T03:48:35.941Z,17.00
2019-05-13T03:51:05.038Z,16.80
2019-05-13T03:53:34.093Z,16.70
2019-05-13T03:56:05.568Z,16.70
2019-05-13T03:58:35.118Z,16.80
2019-05-13T04:01:05.018Z,16.90
2019-05-13T04:03:43.508Z,16.90
2019-05-13T04:06:15.338Z,16.90
2019-05-13T04:08:46.007Z,16.80
2019-05-13T04:11:15.407Z,16.90
2019-05-13T04:13:46.406Z,17.00
2019-05-13T04:16:18.001Z,17.00
2019-05-13T04:21:49.007Z,17.10
2019-05-13T04:24:22.952Z,16.90
2019-05-13T04:26:53.481Z,16.90
2019-05-13T04:29:23.544Z,17.00
2019-05-13T04:31:53.303Z,17.00
2019-05-13T04:34:23.094Z,17.00
2019-05-13T04:36:52.346Z,17.00
2019-05-13T04:39:44.759Z,17.00
2019-05-13T04:42:02.503Z,16.90
2019-05-13T04:44:36.361Z,17.00
2019-05-13T04:53:25.516Z,17.10
2019-05-13T04:56:03.210Z,17.10
2019-05-13T04:59:33.537Z,17.20
2019-05-13T05:02:17.138Z,17.40
2019-05-13T05:11:32.457Z,17.20
2019-05-13T05:17:55.620Z,17.20
2019-05-13T06:01:11.865Z,16.50
2019-05-13T06:03:41.798Z,16.40
2019-05-13T06:06:16.614Z,16.30
2019-05-13T06:08:46.776Z,16.20
2019-05-13T06:11:19.605Z,16.20
2019-05-13T06:14:42.233Z,16.20
2019-05-13T06:16:26.118Z,16.30
2019-05-13T06:18:55.927Z,16.20
2019-05-13T06:21:24.778Z,16.20
2019-05-13T06:23:53.692Z,16.10
2019-05-13T06:26:23.574Z,16.10
2019-05-13T06:28:52.802Z,16.10
2019-05-13T06:31:21.793Z,16.10
2019-05-13T06:33:51.477Z,16.00
2019-05-13T06:36:22.157Z,16.20
2019-05-13T06:38:51.478Z,16.10
2019-05-13T06:41:21.971Z,16.00
2019-05-13T06:43:52.391Z,16.00
2019-05-13T06:46:21.921Z,16.00
2019-05-13T06:48:52.095Z,16.00
2019-05-13T06:51:22.175Z,16.10
2019-05-13T06:53:51.860Z,16.10
2019-05-13T06:56:21.793Z,16.10
2019-05-13T06:58:51.976Z,16.00
2019-05-13T07:01:21.736Z,16.00
2019-05-13T07:03:51.994Z,16.00
2019-05-13T07:06:21.693Z,16.00
2019-05-13T07:08:52.158Z,16.10
2019-05-13T07:11:28.045Z,16.10
2019-05-13T07:13:57.854Z,16.40
2019-05-13T07:16:26.759Z,16.50
2019-05-13T07:18:55.674Z,16.50
2019-05-13T07:21:24.535Z,16.80
2019-05-13T07:23:54.958Z,17.00
2019-05-13T07:26:23.951Z,17.30
2019-05-13T07:28:54.234Z,17.70
2019-05-13T07:31:32.216Z,17.80
2019-05-13T07:34:02.315Z,17.90
2019-05-13T07:36:44.609Z,17.90
2019-05-13T07:39:15.633Z,17.90
2019-05-13T07:41:45.123Z,18.00
2019-05-13T07:44:16.846Z,18.10
2019-05-13T07:46:45.761Z,18.00
2019-05-13T07:49:15.532Z,18.00
2019-05-13T07:51:44.474Z,18.10
2019-05-13T07:54:13.661Z,18.10
2019-05-13T07:56:42.799Z,18.20
2019-05-13T07:59:23.656Z,18.20
2019-05-13T08:04:42.799Z,18.00
2019-05-13T08:07:12.197Z,18.00
2019-05-13T08:09:41.904Z,17.90
2019-05-13T08:12:14.125Z,17.90
2019-05-13T08:14:43.588Z,17.90
2019-05-13T08:17:13.034Z,17.80
2019-05-13T08:19:42.022Z,17.90
2019-05-13T08:22:12.097Z,17.90
2019-05-13T08:27:30.683Z,18.00
2019-05-13T08:30:01.489Z,18.10
2019-05-13T08:32:31.571Z,18.20
2019-05-13T08:35:08.424Z,18.20
2019-05-13T08:37:32.126Z,18.30
2019-05-13T08:40:01.710Z,18.20
2019-05-13T08:42:32.298Z,18.20
2019-05-13T08:45:03.624Z,18.20
2019-05-13T08:47:36.460Z,18.20
2019-05-13T08:50:11.617Z,18.40
2019-05-13T08:52:42.019Z,18.50
2019-05-13T08:55:13.656Z,18.40
2019-05-13T08:57:42.005Z,18.40
2019-05-13T09:00:13.645Z,18.50
2019-05-13T09:02:46.066Z,18.50
2019-05-13T09:05:16.766Z,18.40
2019-05-13T09:07:45.828Z,18.40
2019-05-13T09:10:17.733Z,18.40
2019-05-13T09:12:46.629Z,18.40
2019-05-13T09:15:17.129Z,18.50
2019-05-13T09:17:46.047Z,18.50
2019-05-13T09:20:14.936Z,18.50
2019-05-13T09:22:43.871Z,18.40
2019-05-13T09:25:14.568Z,18.40
2019-05-13T09:27:43.568Z,18.60
2019-05-13T09:30:12.594Z,18.60
2019-05-13T09:32:42.722Z,18.50
2019-05-13T09:35:12.121Z,18.50
2019-05-13T09:37:43.466Z,18.50
2019-05-13T09:40:12.258Z,18.50
2019-05-13T09:42:49.148Z,18.60
2019-05-13T09:45:13.641Z,18.60
2019-05-13T09:47:45.657Z,18.70
2019-05-13T09:50:28.274Z,18.60
2019-05-13T09:52:46.091Z,18.70
2019-05-13T09:55:26.318Z,18.90
2019-05-13T09:57:45.496Z,19.00
2019-05-13T10:00:17.377Z,19.10
2019-05-13T10:02:46.247Z,19.20
2019-05-13T10:05:16.113Z,19.20
2019-05-13T10:07:45.073Z,19.30
2019-05-13T10:10:15.197Z,19.30
2019-05-13T10:13:07.031Z,19.40
2019-05-13T10:15:16.450Z,19.50
2019-05-13T10:17:47.791Z,19.50
2019-05-13T10:20:21.519Z,19.60
2019-05-13T10:22:52.581Z,19.70
2019-05-13T10:25:22.418Z,19.70
2019-05-13T10:27:51.714Z,19.70
2019-05-13T10:30:21.794Z,19.70
2019-05-13T10:32:52.702Z,19.60
2019-05-13T10:35:21.233Z,19.60
2019-05-13T10:37:52.327Z,19.60
2019-05-13T10:40:22.897Z,19.60
2019-05-13T10:42:52.365Z,19.60
2019-05-13T10:48:13.602Z,19.60
2019-05-13T10:50:43.254Z,19.50
2019-05-13T10:53:16.072Z,19.40
2019-05-13T10:55:45.028Z,19.40
2019-05-13T10:58:18.504Z,19.50
2019-05-13T11:00:51.857Z,19.40
2019-05-13T11:03:23.000Z,19.20
2019-05-13T11:05:52.892Z,19.20
2019-05-13T11:08:23.118Z,19.20
2019-05-13T11:10:53.076Z,19.20
2019-05-13T11:13:23.561Z,19.20
2019-05-13T11:15:57.890Z,19.20
2019-05-13T11:18:24.424Z,19.20
2019-05-13T11:20:53.699Z,19.30
2019-05-13T11:23:23.656Z,19.30
2019-05-13T11:25:52.682Z,19.40
2019-05-13T11:28:21.999Z,19.60
2019-05-13T11:30:52.075Z,19.50
2019-05-13T11:33:24.539Z,19.60
2019-05-13T11:35:53.475Z,19.70
2019-05-13T11:38:23.450Z,19.90
2019-05-13T11:40:52.697Z,20.20
2019-05-13T11:43:27.559Z,20.20
2019-05-13T11:45:56.491Z,20.20
2019-05-13T11:51:34.809Z,19.90
2019-05-13T11:54:03.991Z,19.80
2019-05-13T11:57:02.719Z,19.70
2019-05-13T11:59:35.821Z,19.50
2019-05-13T12:02:05.106Z,19.30
2019-05-13T12:04:34.883Z,19.20
2019-05-13T12:07:05.099Z,19.10
2019-05-13T12:09:33.953Z,19.10
2019-05-13T12:12:04.955Z,19.00
2019-05-13T12:14:44.305Z,18.90
2019-05-13T12:17:04.895Z,18.90
2019-05-13T12:19:33.847Z,18.80
2019-05-13T12:22:04.484Z,18.80
2019-05-13T12:24:33.394Z,18.80
2019-05-13T12:27:11.896Z,18.70
2019-05-13T12:29:52.737Z,18.80
2019-05-13T12:32:22.658Z,18.70
2019-05-13T12:34:55.981Z,18.60
2019-05-13T12:37:25.603Z,18.60
2019-05-13T12:39:55.896Z,18.60
2019-05-13T12:42:24.893Z,18.60
2019-05-13T12:45:09.434Z,18.60
2019-05-13T12:47:24.414Z,18.60
2019-05-13T12:49:53.327Z,18.60
2019-05-13T12:52:23.097Z,18.60
2019-05-13T12:54:52.758Z,18.70
2019-05-13T12:57:23.091Z,18.70
2019-05-13T12:59:52.358Z,18.70
2019-05-13T13:02:22.617Z,18.60
2019-05-13T13:05:12.993Z,18.70
2019-05-13T13:07:41.297Z,18.70
2019-05-13T13:10:14.565Z,18.80
2019-05-13T13:12:42.081Z,18.80
2019-05-13T13:15:36.509Z,18.80
2019-05-13T13:20:24.183Z,18.80
2019-05-13T13:22:51.419Z,18.80
2019-05-13T13:25:23.926Z,18.80
2019-05-13T13:28:11.091Z,18.80
2019-05-13T13:30:27.185Z,18.80
2019-05-13T13:35:58.965Z,18.80
2019-05-13T13:38:25.071Z,18.80
2019-05-13T13:40:53.833Z,18.80
2019-05-13T13:43:46.736Z,18.80
2019-05-13T13:46:33.820Z,18.80
2019-05-13T13:48:47.273Z,18.90
2019-05-13T13:51:18.770Z,18.90
2019-05-13T13:53:47.610Z,19.00
2019-05-13T13:56:25.203Z,19.10
2019-05-13T13:58:50.511Z,19.00
2019-05-13T14:01:27.435Z,19.00
2019-05-13T14:03:55.893Z,19.00
2019-05-13T14:07:22.939Z,19.10
2019-05-13T14:08:56.282Z,19.00
2019-05-13T14:11:26.376Z,19.00
2019-05-13T14:13:56.550Z,18.90
2019-05-13T14:16:31.469Z,18.80
2019-05-13T14:18:55.942Z,18.80
2019-05-13T14:21:25.063Z,18.80
2019-05-13T14:23:53.900Z,18.70
2019-05-13T14:26:22.754Z,18.70
2019-05-13T14:28:53.608Z,18.60
2019-05-13T14:31:22.129Z,18.60
2019-05-13T14:33:52.157Z,18.70
2019-05-13T14:36:23.251Z,18.70
2019-05-13T14:38:52.859Z,18.70
2019-05-13T14:41:23.529Z,18.70
2019-05-13T14:43:52.372Z,18.80
2019-05-13T14:46:30.611Z,18.60
2019-05-13T14:48:52.975Z,18.50
2019-05-13T14:51:21.973Z,18.40
2019-05-13T14:53:52.274Z,18.20
2019-05-13T14:56:32.465Z,18.10
2019-05-13T14:59:06.358Z,18.00
2019-05-13T15:01:43.835Z,18.00
2019-05-13T15:04:13.083Z,17.90
2019-05-13T15:07:00.514Z,17.80
2019-05-13T15:09:31.533Z,17.80
2019-05-13T15:12:10.938Z,17.90
2019-05-13T15:14:43.787Z,17.90
2019-05-13T15:17:16.063Z,18.00
2019-05-13T15:20:04.235Z,18.00
2019-05-13T15:22:42.553Z,18.00
2019-05-13T15:25:31.375Z,18.00
2019-05-13T15:28:03.833Z,18.10
2019-05-13T15:33:48.463Z,18.00
2019-05-13T15:36:36.601Z,18.10
2019-05-13T15:39:03.347Z,18.10
2019-05-13T15:41:33.726Z,18.10
2019-05-13T15:44:08.771Z,18.10
2019-05-13T15:46:41.742Z,18.20
2019-05-13T15:49:12.353Z,18.20
2019-05-13T15:51:43.258Z,17.90
2019-05-13T15:54:15.692Z,17.70
2019-05-13T15:56:42.946Z,17.70
2019-05-13T15:59:12.564Z,17.60
2019-05-13T16:01:41.696Z,17.70
2019-05-13T16:04:12.835Z,17.80
2019-05-13T16:06:41.791Z,17.90
2019-05-13T16:09:20.931Z,18.00
2019-05-13T16:11:51.986Z,17.90
2019-05-13T16:14:21.970Z,18.00
2019-05-13T16:17:03.832Z,18.00
2019-05-13T16:19:32.879Z,17.90
2019-05-13T16:22:02.623Z,17.80
2019-05-13T16:24:32.125Z,17.90
2019-05-13T16:30:05.773Z,17.80
2019-05-13T16:32:35.102Z,17.80
2019-05-13T16:41:00.200Z,17.80
2019-05-13T16:46:35.804Z,17.90
2019-05-13T16:49:05.859Z,18.10
2019-05-13T16:51:36.113Z,17.90
2019-05-13T16:54:12.897Z,17.90
2019-05-13T16:56:51.787Z,17.90
2019-05-13T16:59:25.172Z,17.80
2019-05-13T17:01:54.702Z,17.70
2019-05-13T17:04:23.628Z,17.70
2019-05-13T17:06:56.632Z,17.70
2019-05-13T17:09:25.540Z,17.90
2019-05-13T17:11:54.940Z,17.90
2019-05-13T17:14:25.415Z,17.90
2019-05-13T17:16:56.229Z,17.80
2019-05-13T17:19:55.620Z,17.70
2019-05-13T18:26:45.536Z,17.40
2019-05-13T18:43:48.663Z,17.30
2019-05-13T18:46:21.749Z,17.30
2019-05-13T18:55:05.791Z,17.20
2019-05-13T19:12:07.239Z,17.10
2019-05-13T20:38:31.673Z,15.70
2019-05-13T20:41:01.337Z,15.70
2019-05-13T20:56:11.882Z,15.60
2019-05-13T20:58:51.713Z,15.90
2019-05-13T21:10:15.125Z,15.80
2019-05-13T21:22:12.741Z,15.30
2019-05-13T21:24:41.390Z,15.20
2019-05-13T21:27:11.898Z,15.10
2019-05-13T21:29:41.384Z,15.20
2019-05-13T21:32:11.826Z,15.20
2019-05-13T21:34:40.820Z,15.20
2019-05-13T21:37:11.369Z,15.30
2019-05-13T21:39:41.269Z,15.30
2019-05-13T21:42:11.500Z,15.30
2019-05-13T21:44:41.974Z,15.30
2019-05-13T21:47:11.405Z,15.30
2019-05-13T21:49:42.169Z,15.20
2019-05-13T21:52:10.782Z,15.30
2019-05-13T21:54:42.015Z,15.10
2019-05-13T21:57:11.465Z,15.10
2019-05-13T21:59:41.429Z,15.10
2019-05-13T22:02:10.567Z,15.10
2019-05-13T22:04:41.128Z,15.00
2019-05-13T22:07:11.918Z,15.10
2019-05-13T22:09:41.882Z,14.90
2019-05-13T22:12:10.659Z,15.00
2019-05-13T22:14:41.172Z,15.00
2019-05-13T22:17:12.202Z,15.00
2019-05-13T22:19:41.992Z,15.10
2019-05-13T22:22:11.605Z,15.10
2019-05-13T22:24:41.827Z,15.10
2019-05-13T22:27:13.008Z,15.30
2019-05-13T22:29:41.538Z,15.40
2019-05-13T22:32:11.338Z,15.40
2019-05-13T22:34:41.903Z,15.50
2019-05-13T22:37:11.653Z,15.50
2019-05-13T22:39:42.055Z,15.50
2019-05-13T22:42:12.496Z,15.50
2019-05-13T22:44:41.870Z,15.50
2019-05-13T22:47:13.037Z,15.50
2019-05-13T22:49:41.177Z,15.60
2019-05-13T22:52:11.411Z,15.50
2019-05-13T22:54:41.211Z,15.40
2019-05-13T22:57:11.902Z,15.50
2019-05-13T22:59:41.599Z,15.50
2019-05-13T23:02:10.568Z,15.40
2019-05-13T23:04:41.693Z,15.40
2019-05-13T23:07:11.783Z,15.30
2019-05-13T23:09:41.598Z,15.30
2019-05-13T23:12:12.306Z,15.40
2019-05-13T23:14:41.459Z,15.20
2019-05-13T23:17:12.278Z,14.90
2019-05-13T23:19:41.472Z,14.80
2019-05-13T23:22:12.040Z,14.90
2019-05-13T23:24:41.760Z,15.00
2019-05-13T23:27:11.136Z,15.10
2019-05-13T23:29:41.212Z,15.10
2019-05-13T23:32:12.080Z,15.10
2019-05-13T23:34:42.341Z,15.20
2019-05-13T23:37:11.543Z,15.30
2019-05-13T23:39:41.680Z,15.30
2019-05-13T23:42:12.137Z,15.10
2019-05-13T23:44:41.542Z,14.90
2019-05-13T23:47:11.442Z,14.70
2019-05-13T23:49:42.281Z,14.70
2019-05-13T23:52:11.770Z,14.70
2019-05-13T23:54:42.520Z,14.80
2019-05-13T23:57:11.709Z,14.90
2019-05-13T23:59:42.015Z,15.00
